createdAt,value
2022-10-16T00:01:41.478Z,100.00
2022-10-16T00:04:10.723Z,100.00
2022-10-16T00:06:39.069Z,100.00
2022-10-16T00:09:07.870Z,100.00
2022-10-16T00:11:40.660Z,100.00
2022-10-16T00:14:10.440Z,100.00
2022-10-16T00:16:38.165Z,100.00
2022-10-16T00:19:08.040Z,100.00
2022-10-16T00:21:35.968Z,100.00
2022-10-16T00:24:09.801Z,100.00
2022-10-16T00:26:39.304Z,100.00
2022-10-16T00:29:09.587Z,100.00
2022-10-16T00:31:37.975Z,100.00
2022-10-16T00:34:05.497Z,100.00
2022-10-16T00:36:34.999Z,100.00
2022-10-16T00:39:03.981Z,100.00
2022-10-16T00:41:32.122Z,100.00
2022-10-16T00:44:03.789Z,100.00
2022-10-16T00:46:43.204Z,100.00
2022-10-16T00:49:18.171Z,100.00
2022-10-16T00:51:52.556Z,100.00
2022-10-16T00:54:24.679Z,100.00
2022-10-16T00:56:54.880Z,100.00
2022-10-16T00:59:27.439Z,100.00
2022-10-16T01:01:57.148Z,100.00
2022-10-16T01:04:27.317Z,100.00
2022-10-16T01:06:54.930Z,100.00
2022-10-16T01:09:33.275Z,100.00
2022-10-16T01:12:18.612Z,100.00
2022-10-16T01:15:00.937Z,100.00
2022-10-16T01:17:48.256Z,100.00
2022-10-16T01:20:21.827Z,100.00
2022-10-16T01:23:17.463Z,100.00
2022-10-16T01:26:04.198Z,100.00
2022-10-16T01:28:42.634Z,100.00
2022-10-16T01:31:12.883Z,100.00
2022-10-16T01:33:43.142Z,100.00
2022-10-16T01:36:18.390Z,100.00
2022-10-16T01:38:48.820Z,100.00
2022-10-16T01:41:27.699Z,100.00
2022-10-16T01:44:15.430Z,100.00
2022-10-16T01:46:47.059Z,100.00
2022-10-16T01:49:14.817Z,100.00
2022-10-16T01:51:45.964Z,100.00
2022-10-16T01:54:17.365Z,100.00
2022-10-16T01:56:46.581Z,100.00
2022-10-16T01:59:20.998Z,100.00
2022-10-16T02:01:55.227Z,100.00
2022-10-16T02:04:29.057Z,100.00
2022-10-16T02:06:56.972Z,100.00
2022-10-16T02:09:24.751Z,100.00
2022-10-16T02:11:55.305Z,100.00
2022-10-16T02:14:25.772Z,100.00
2022-10-16T02:16:55.209Z,100.00
2022-10-16T02:19:23.809Z,100.00
2022-10-16T02:22:03.823Z,100.00
2022-10-16T02:24:48.040Z,100.00
2022-10-16T02:27:35.708Z,100.00
2022-10-16T02:30:09.524Z,100.00
2022-10-16T02:32:39.699Z,100.00
2022-10-16T02:35:08.790Z,100.00
2022-10-16T02:37:38.087Z,100.00
2022-10-16T02:40:08.906Z,100.00
2022-10-16T02:42:39.696Z,100.00
2022-10-16T02:45:09.304Z,100.00
2022-10-16T02:47:38.672Z,100.00
2022-10-16T02:50:06.815Z,100.00
2022-10-16T02:52:34.326Z,100.00
2022-10-16T02:55:03.016Z,100.00
2022-10-16T02:57:30.664Z,100.00
2022-10-16T02:59:58.242Z,100.00
2022-10-16T03:02:27.074Z,100.00
2022-10-16T03:04:54.585Z,100.00
2022-10-16T03:07:27.095Z,100.00
2022-10-16T03:09:55.660Z,100.00
2022-10-16T03:12:23.531Z,100.00
2022-10-16T03:14:51.057Z,100.00
2022-10-16T03:17:18.909Z,100.00
2022-10-16T03:19:48.301Z,100.00
2022-10-16T03:22:16.306Z,100.00
2022-10-16T03:24:44.021Z,100.00
2022-10-16T03:27:11.634Z,100.00
2022-10-16T03:29:39.480Z,100.00
2022-10-16T03:32:07.003Z,100.00
2022-10-16T03:34:35.528Z,100.00
2022-10-16T03:37:03.407Z,100.00
2022-10-16T03:39:31.684Z,100.00
2022-10-16T03:41:59.212Z,100.00
2022-10-16T03:44:26.774Z,100.00
2022-10-16T03:46:54.272Z,100.00
2022-10-16T03:49:21.923Z,100.00
2022-10-16T03:51:53.079Z,100.00
2022-10-16T03:54:20.650Z,100.00
2022-10-16T03:56:48.103Z,100.00
2022-10-16T03:59:15.971Z,100.00
2022-10-16T04:01:43.468Z,100.00
2022-10-16T04:04:10.977Z,100.00
2022-10-16T04:06:40.324Z,100.00
2022-10-16T04:09:08.512Z,100.00
2022-10-16T04:11:37.465Z,100.00
2022-10-16T04:14:06.332Z,100.00
2022-10-16T04:16:35.928Z,100.00
2022-10-16T04:19:03.973Z,100.00
2022-10-16T04:21:31.518Z,100.00
2022-10-16T04:24:02.742Z,100.00
2022-10-16T04:26:30.662Z,100.00
2022-10-16T04:28:58.208Z,100.00
2022-10-16T04:31:25.861Z,100.00
2022-10-16T04:33:53.408Z,100.00
2022-10-16T04:36:23.257Z,100.00
2022-10-16T04:38:52.979Z,100.00
2022-10-16T04:41:24.562Z,100.00
2022-10-16T04:43:52.355Z,100.00
2022-10-16T04:46:20.136Z,100.00
2022-10-16T04:48:47.973Z,100.00
2022-10-16T04:51:16.399Z,100.00
2022-10-16T04:53:44.170Z,100.00
2022-10-16T04:56:11.745Z,100.00
2022-10-16T04:58:42.983Z,100.00
2022-10-16T05:01:10.730Z,100.00
2022-10-16T05:03:39.926Z,100.00
2022-10-16T05:06:08.483Z,100.00
2022-10-16T05:08:37.699Z,100.00
2022-10-16T05:11:05.684Z,100.00
2022-10-16T05:13:34.353Z,100.00
2022-10-16T05:16:02.195Z,100.00
2022-10-16T05:18:34.876Z,100.00
2022-10-16T05:21:02.616Z,100.00
2022-10-16T05:23:30.253Z,100.00
2022-10-16T05:25:59.978Z,100.00
2022-10-16T05:28:29.148Z,100.00
2022-10-16T05:30:57.646Z,100.00
2022-10-16T05:33:26.776Z,100.00
2022-10-16T05:35:54.405Z,100.00
2022-10-16T05:38:22.397Z,100.00
2022-10-16T05:40:57.307Z,100.00
2022-10-16T05:43:24.972Z,100.00
2022-10-16T05:46:04.569Z,100.00
2022-10-16T05:48:33.579Z,100.00
2022-10-16T05:51:10.109Z,100.00
2022-10-16T05:53:40.138Z,100.00
2022-10-16T05:56:11.306Z,100.00
2022-10-16T05:58:41.461Z,100.00
2022-10-16T06:01:16.644Z,100.00
2022-10-16T06:03:45.460Z,100.00
2022-10-16T06:06:15.504Z,100.00
2022-10-16T06:08:47.117Z,100.00
2022-10-16T06:11:21.991Z,100.00
2022-10-16T06:13:57.656Z,100.00
2022-10-16T06:16:27.517Z,100.00
2022-10-16T06:18:57.053Z,100.00
2022-10-16T06:21:26.503Z,100.00
2022-10-16T06:23:55.412Z,100.00
2022-10-16T06:26:25.888Z,100.00
2022-10-16T06:28:56.420Z,100.00
2022-10-16T06:31:28.534Z,100.00
2022-10-16T06:33:57.276Z,100.00
2022-10-16T06:36:25.296Z,100.00
2022-10-16T06:38:53.521Z,100.00
2022-10-16T06:41:23.095Z,100.00
2022-10-16T06:43:50.748Z,100.00
2022-10-16T06:46:20.949Z,100.00
2022-10-16T06:48:48.543Z,100.00
2022-10-16T06:51:18.732Z,100.00
2022-10-16T06:54:05.651Z,100.00
2022-10-16T06:56:34.363Z,100.00
2022-10-16T06:59:02.993Z,100.00
2022-10-16T07:01:31.041Z,100.00
2022-10-16T07:03:58.753Z,100.00
2022-10-16T07:06:28.396Z,100.00
2022-10-16T07:08:56.721Z,100.00
2022-10-16T07:11:25.560Z,100.00
2022-10-16T07:13:55.918Z,100.00
2022-10-16T07:16:27.085Z,100.00
2022-10-16T07:19:00.055Z,100.00
2022-10-16T07:21:31.331Z,100.00
2022-10-16T07:24:02.437Z,100.00
2022-10-16T07:26:33.699Z,100.00
2022-10-16T07:29:01.928Z,100.00
2022-10-16T07:31:29.644Z,100.00
2022-10-16T07:33:59.551Z,100.00
2022-10-16T07:36:29.577Z,100.00
2022-10-16T07:38:59.884Z,100.00
2022-10-16T07:41:29.163Z,100.00
2022-10-16T07:44:01.140Z,100.00
2022-10-16T07:46:29.998Z,100.00
2022-10-16T07:48:57.933Z,100.00
2022-10-16T07:51:27.002Z,100.00
2022-10-16T07:53:55.353Z,100.00
2022-10-16T07:56:23.516Z,100.00
2022-10-16T07:58:52.044Z,100.00
2022-10-16T08:01:20.581Z,100.00
2022-10-16T08:03:50.762Z,100.00
2022-10-16T08:06:22.087Z,100.00
2022-10-16T08:08:52.883Z,100.00
2022-10-16T08:11:20.653Z,100.00
2022-10-16T08:13:52.450Z,100.00
2022-10-16T08:16:22.621Z,100.00
2022-10-16T08:18:52.510Z,100.00
2022-10-16T08:21:24.159Z,100.00
2022-10-16T08:23:56.675Z,100.00
2022-10-16T08:26:27.560Z,100.00
2022-10-16T08:28:56.415Z,100.00
2022-10-16T08:31:25.369Z,100.00
2022-10-16T08:33:53.695Z,100.00
2022-10-16T08:36:21.567Z,100.00
2022-10-16T08:38:51.636Z,100.00
2022-10-16T08:41:42.144Z,100.00
2022-10-16T08:44:25.147Z,100.00
2022-10-16T08:47:10.768Z,100.00
2022-10-16T08:49:39.708Z,100.00
2022-10-16T08:52:14.965Z,100.00
2022-10-16T08:54:47.701Z,100.00
2022-10-16T08:57:23.226Z,100.00
2022-10-16T08:59:52.863Z,100.00
2022-10-16T09:02:25.606Z,100.00
2022-10-16T09:05:22.161Z,100.00
2022-10-16T09:07:54.585Z,100.00
2022-10-16T09:10:32.549Z,100.00
2022-10-16T09:13:20.411Z,100.00
2022-10-16T09:16:08.056Z,98.92
2022-10-16T09:18:47.084Z,98.94
2022-10-16T09:21:22.743Z,97.54
2022-10-16T09:23:51.780Z,97.13
2022-10-16T09:28:54.456Z,96.28
2022-10-16T09:31:23.879Z,96.04
2022-10-16T09:33:56.469Z,94.66
2022-10-16T09:36:26.435Z,91.52
2022-10-16T09:39:09.644Z,90.91
2022-10-16T09:41:40.739Z,90.54
2022-10-16T09:44:22.368Z,90.07
2022-10-16T09:46:50.862Z,88.86
2022-10-16T09:49:24.533Z,89.48
2022-10-16T09:52:13.872Z,88.44
2022-10-16T09:55:15.362Z,88.42
2022-10-16T09:57:53.972Z,89.05
2022-10-16T10:00:25.023Z,89.10
2022-10-16T10:05:30.022Z,82.35
2022-10-16T10:08:00.715Z,80.93
2022-10-16T10:10:30.692Z,83.76
2022-10-16T10:13:01.963Z,82.46
2022-10-16T10:15:37.443Z,80.05
2022-10-16T10:18:22.743Z,77.78
2022-10-16T10:21:06.258Z,77.02
2022-10-16T10:23:33.865Z,79.24
2022-10-16T10:26:25.474Z,77.17
2022-10-16T10:29:04.195Z,76.49
2022-10-16T10:31:44.732Z,75.91
2022-10-16T10:34:36.920Z,76.16
2022-10-16T10:37:34.179Z,75.52
2022-10-16T10:40:04.366Z,75.56
2022-10-16T10:42:58.945Z,75.14
2022-10-16T10:45:29.247Z,75.00
2022-10-16T10:48:22.249Z,74.89
2022-10-16T10:51:02.827Z,74.50
2022-10-16T10:53:50.626Z,74.34
2022-10-16T10:56:27.914Z,75.12
2022-10-16T10:59:02.116Z,74.63
2022-10-16T11:01:40.800Z,73.86
2022-10-16T11:04:50.505Z,73.82
2022-10-16T11:07:26.243Z,72.96
2022-10-16T11:09:59.779Z,72.43
2022-10-16T11:12:37.477Z,72.49
2022-10-16T11:15:42.600Z,71.53
2022-10-16T11:18:21.148Z,71.35
2022-10-16T11:21:15.373Z,70.06
2022-10-16T11:23:53.783Z,69.94
2022-10-16T11:26:27.636Z,68.54
2022-10-16T11:28:57.408Z,70.43
2022-10-16T11:31:37.129Z,70.03
2022-10-16T11:34:35.664Z,70.71
2022-10-16T11:37:21.711Z,71.44
2022-10-16T11:39:51.678Z,72.74
2022-10-16T11:42:55.421Z,72.14
2022-10-16T11:45:37.295Z,72.87
2022-10-16T11:48:20.123Z,72.99
2022-10-16T11:50:54.817Z,73.15
2022-10-16T11:53:31.122Z,75.64
2022-10-16T11:55:58.682Z,75.64
2022-10-16T11:58:40.104Z,76.41
2022-10-16T12:01:10.732Z,77.40
2022-10-16T12:03:50.670Z,76.74
2022-10-16T12:06:44.685Z,76.95
2022-10-16T12:09:36.932Z,76.90
2022-10-16T12:12:29.139Z,77.33
2022-10-16T12:15:19.633Z,75.63
2022-10-16T12:17:50.442Z,74.10
2022-10-16T12:20:28.392Z,74.40
2022-10-16T12:22:58.067Z,74.71
2022-10-16T12:25:30.703Z,73.94
2022-10-16T12:28:02.862Z,72.71
2022-10-16T12:30:35.905Z,71.55
2022-10-16T12:33:27.207Z,72.73
2022-10-16T12:35:56.591Z,73.42
2022-10-16T12:38:31.448Z,74.97
2022-10-16T12:41:04.898Z,74.39
2022-10-16T12:43:47.102Z,74.41
2022-10-16T12:46:14.675Z,73.77
2022-10-16T12:49:02.250Z,72.50
2022-10-16T12:51:33.059Z,71.93
2022-10-16T12:54:12.698Z,71.84
2022-10-16T12:57:04.367Z,73.04
2022-10-16T12:59:44.851Z,71.97
2022-10-16T13:02:43.209Z,72.29
2022-10-16T13:05:16.580Z,73.50
2022-10-16T13:08:11.639Z,74.31
2022-10-16T13:11:23.676Z,74.78
2022-10-16T13:14:09.608Z,74.07
2022-10-16T13:16:55.429Z,72.99
2022-10-16T13:20:09.138Z,72.72
2022-10-16T13:23:05.079Z,73.23
2022-10-16T13:25:41.771Z,72.33
2022-10-16T13:28:12.195Z,72.31
2022-10-16T13:30:44.963Z,72.84
2022-10-16T13:33:27.706Z,73.28
2022-10-16T13:35:57.775Z,73.20
2022-10-16T13:38:28.775Z,73.78
2022-10-16T13:41:05.175Z,74.76
2022-10-16T13:43:48.244Z,75.37
2022-10-16T13:46:21.920Z,75.26
2022-10-16T13:49:01.187Z,75.31
2022-10-16T13:51:30.965Z,74.19
2022-10-16T13:53:59.231Z,75.01
2022-10-16T13:56:30.951Z,75.70
2022-10-16T13:59:03.789Z,75.59
2022-10-16T14:01:33.356Z,74.43
2022-10-16T14:04:10.646Z,75.24
2022-10-16T14:06:43.020Z,75.13
2022-10-16T14:09:28.207Z,75.63
2022-10-16T14:12:04.630Z,75.95
2022-10-16T14:14:41.765Z,76.25
2022-10-16T14:17:17.500Z,75.66
2022-10-16T14:19:51.516Z,75.34
2022-10-16T14:22:41.230Z,75.35
2022-10-16T14:25:22.815Z,76.25
2022-10-16T14:30:37.476Z,77.34
2022-10-16T14:33:21.047Z,78.72
2022-10-16T14:36:00.623Z,80.82
2022-10-16T14:38:28.364Z,82.29
2022-10-16T14:40:59.846Z,81.05
2022-10-16T14:43:35.046Z,81.98
2022-10-16T14:46:05.194Z,83.26
2022-10-16T14:48:33.312Z,83.39
2022-10-16T14:51:00.825Z,85.45
2022-10-16T14:53:28.786Z,87.12
2022-10-16T14:55:56.529Z,88.15
2022-10-16T14:58:25.739Z,89.92
2022-10-16T15:00:53.314Z,91.42
2022-10-16T15:03:20.867Z,91.99
2022-10-16T15:05:49.569Z,92.87
2022-10-16T15:08:17.562Z,93.95
2022-10-16T15:10:45.359Z,95.65
2022-10-16T15:13:16.421Z,96.04
2022-10-16T15:15:50.162Z,96.08
2022-10-16T15:18:21.368Z,97.84
2022-10-16T15:20:51.040Z,98.04
2022-10-16T15:23:21.394Z,98.75
2022-10-16T15:25:53.671Z,99.17
2022-10-16T15:28:23.125Z,100.00
2022-10-16T15:30:53.700Z,100.00
2022-10-16T15:33:28.621Z,100.00
2022-10-16T15:35:56.677Z,100.00
2022-10-16T15:38:24.412Z,100.00
2022-10-16T15:40:53.740Z,100.00
2022-10-16T15:43:22.436Z,100.00
2022-10-16T15:46:18.070Z,100.00
2022-10-16T15:48:45.604Z,100.00
2022-10-16T15:51:13.454Z,100.00
2022-10-16T15:53:42.768Z,100.00
2022-10-16T15:56:12.434Z,100.00
2022-10-16T15:58:40.018Z,100.00
2022-10-16T16:01:09.279Z,100.00
2022-10-16T16:03:37.976Z,100.00
2022-10-16T16:06:08.484Z,100.00
2022-10-16T16:08:37.446Z,100.00
2022-10-16T16:11:08.751Z,100.00
2022-10-16T16:13:41.172Z,100.00
2022-10-16T16:16:15.344Z,100.00
2022-10-16T16:18:45.976Z,100.00
2022-10-16T16:21:14.343Z,100.00
2022-10-16T16:23:41.815Z,100.00
2022-10-16T16:26:27.452Z,100.00
2022-10-16T16:28:56.807Z,100.00
2022-10-16T16:31:29.079Z,100.00
2022-10-16T16:33:57.939Z,100.00
2022-10-16T16:36:26.405Z,100.00
2022-10-16T16:38:53.984Z,100.00
2022-10-16T16:41:24.650Z,100.00
2022-10-16T16:43:53.321Z,100.00
2022-10-16T16:46:21.582Z,100.00
2022-10-16T16:48:51.446Z,100.00
2022-10-16T16:51:20.872Z,100.00
2022-10-16T16:53:51.521Z,100.00
2022-10-16T16:56:20.008Z,100.00
2022-10-16T16:58:49.622Z,100.00
2022-10-16T17:01:20.834Z,100.00
2022-10-16T17:03:52.949Z,100.00
2022-10-16T17:06:23.117Z,100.00
2022-10-16T17:08:53.373Z,100.00
2022-10-16T17:11:27.078Z,100.00
2022-10-16T17:13:57.597Z,100.00
2022-10-16T17:16:31.272Z,100.00
2022-10-16T17:19:04.539Z,100.00
2022-10-16T17:21:35.335Z,100.00
2022-10-16T17:24:03.346Z,100.00
2022-10-16T17:26:31.496Z,100.00
2022-10-16T17:29:01.784Z,100.00
2022-10-16T17:31:35.190Z,100.00
2022-10-16T17:34:07.009Z,100.00
2022-10-16T17:36:36.894Z,100.00
2022-10-16T17:39:08.148Z,100.00
2022-10-16T17:41:37.324Z,100.00
2022-10-16T17:44:06.785Z,100.00
2022-10-16T17:46:38.417Z,100.00
2022-10-16T17:49:10.327Z,100.00
2022-10-16T17:51:38.258Z,100.00
2022-10-16T17:54:07.533Z,100.00
2022-10-16T17:56:36.174Z,100.00
2022-10-16T17:59:05.513Z,100.00
2022-10-16T18:01:37.115Z,100.00
2022-10-16T18:04:13.763Z,100.00
2022-10-16T18:06:44.052Z,100.00
2022-10-16T18:09:15.593Z,100.00
2022-10-16T18:11:43.123Z,100.00
2022-10-16T18:14:16.308Z,100.00
2022-10-16T18:16:46.899Z,100.00
2022-10-16T18:19:14.485Z,100.00
2022-10-16T18:21:42.119Z,100.00
2022-10-16T18:24:11.517Z,100.00
2022-10-16T18:26:39.953Z,100.00
2022-10-16T18:29:08.188Z,100.00
2022-10-16T18:31:39.068Z,100.00
2022-10-16T18:34:09.963Z,100.00
2022-10-16T18:36:37.823Z,100.00
2022-10-16T18:39:09.540Z,100.00
2022-10-16T18:41:44.684Z,100.00
2022-10-16T18:44:13.396Z,100.00
2022-10-16T18:46:41.791Z,100.00
2022-10-16T18:49:09.471Z,100.00
2022-10-16T18:51:40.781Z,100.00
2022-10-16T18:54:11.056Z,100.00
2022-10-16T18:56:40.866Z,100.00
2022-10-16T18:59:09.473Z,100.00
2022-10-16T19:01:42.647Z,100.00
2022-10-16T19:04:13.365Z,100.00
2022-10-16T19:06:49.679Z,100.00
2022-10-16T19:09:19.122Z,100.00
2022-10-16T19:11:47.150Z,100.00
2022-10-16T19:14:16.821Z,100.00
2022-10-16T19:16:44.808Z,100.00
2022-10-16T19:19:16.255Z,100.00
2022-10-16T19:21:44.362Z,100.00
2022-10-16T19:24:14.537Z,100.00
2022-10-16T19:26:43.378Z,100.00
2022-10-16T19:29:12.221Z,100.00
2022-10-16T19:31:40.954Z,100.00
2022-10-16T19:34:10.928Z,100.00
2022-10-16T19:36:41.041Z,100.00
2022-10-16T19:39:13.413Z,100.00
2022-10-16T19:41:41.290Z,100.00
2022-10-16T19:44:12.564Z,100.00
2022-10-16T19:46:40.532Z,100.00
2022-10-16T19:49:11.226Z,100.00
2022-10-16T19:51:40.032Z,100.00
2022-10-16T19:54:12.062Z,100.00
2022-10-16T19:56:39.917Z,100.00
2022-10-16T19:59:11.772Z,100.00
2022-10-16T20:01:39.724Z,100.00
2022-10-16T20:04:07.497Z,100.00
2022-10-16T20:06:35.379Z,100.00
2022-10-16T20:09:04.140Z,100.00
2022-10-16T20:11:33.878Z,100.00
2022-10-16T20:14:03.437Z,100.00
2022-10-16T20:16:32.320Z,100.00
2022-10-16T20:19:01.110Z,100.00
2022-10-16T20:21:31.465Z,100.00
2022-10-16T20:24:05.215Z,100.00
2022-10-16T20:26:33.217Z,100.00
2022-10-16T20:29:02.386Z,100.00
2022-10-16T20:31:32.285Z,100.00
2022-10-16T20:34:04.999Z,100.00
2022-10-16T20:36:35.639Z,100.00
2022-10-16T20:39:03.490Z,100.00
2022-10-16T20:41:31.185Z,100.00
2022-10-16T20:43:59.244Z,100.00
2022-10-16T20:46:28.442Z,100.00
2022-10-16T20:49:05.903Z,100.00
2022-10-16T20:51:40.271Z,100.00
2022-10-16T20:54:07.984Z,100.00
2022-10-16T20:56:37.371Z,100.00
2022-10-16T20:59:05.518Z,100.00
2022-10-16T21:01:36.609Z,100.00
2022-10-16T21:04:07.101Z,100.00
2022-10-16T21:06:37.137Z,100.00
2022-10-16T21:09:06.738Z,100.00
2022-10-16T21:11:35.847Z,100.00
2022-10-16T21:14:06.461Z,100.00
2022-10-16T21:16:34.573Z,100.00
2022-10-16T21:19:05.470Z,100.00
2022-10-16T21:21:38.474Z,100.00
2022-10-16T21:24:09.903Z,100.00
2022-10-16T21:26:40.194Z,100.00
2022-10-16T21:29:08.083Z,100.00
2022-10-16T21:31:36.285Z,100.00
2022-10-16T21:34:04.129Z,100.00
2022-10-16T21:36:34.854Z,100.00
2022-10-16T21:39:04.774Z,100.00
2022-10-16T21:41:33.636Z,100.00
2022-10-16T21:44:02.050Z,100.00
2022-10-16T21:46:32.537Z,100.00
2022-10-16T21:49:03.496Z,100.00
2022-10-16T21:51:34.016Z,100.00
2022-10-16T21:54:03.350Z,100.00
2022-10-16T21:56:31.059Z,100.00
2022-10-16T21:58:59.470Z,100.00
2022-10-16T22:01:28.795Z,100.00
2022-10-16T22:03:57.879Z,100.00
2022-10-16T22:06:27.768Z,100.00
2022-10-16T22:09:01.211Z,100.00
2022-10-16T22:11:36.638Z,100.00
2022-10-16T22:14:10.839Z,100.00
2022-10-16T22:16:39.680Z,100.00
2022-10-16T22:19:08.289Z,100.00
2022-10-16T22:21:37.962Z,100.00
2022-10-16T22:24:07.453Z,100.00
2022-10-16T22:26:36.588Z,100.00
2022-10-16T22:29:04.998Z,100.00
2022-10-16T22:31:34.673Z,100.00
2022-10-16T22:34:04.220Z,100.00
2022-10-16T22:36:32.755Z,100.00
2022-10-16T22:39:00.907Z,100.00
2022-10-16T22:41:28.636Z,100.00
2022-10-16T22:43:56.798Z,100.00
2022-10-16T22:46:27.499Z,100.00
2022-10-16T22:48:56.245Z,100.00
2022-10-16T22:51:25.655Z,100.00
2022-10-16T22:53:58.168Z,100.00
2022-10-16T22:56:26.225Z,100.00
2022-10-16T22:58:54.665Z,100.00
2022-10-16T23:01:27.117Z,100.00
2022-10-16T23:03:55.796Z,100.00
2022-10-16T23:06:23.826Z,100.00
2022-10-16T23:08:56.444Z,100.00
2022-10-16T23:11:24.736Z,100.00
2022-10-16T23:13:53.519Z,100.00
2022-10-16T23:16:25.296Z,100.00
2022-10-16T23:18:54.604Z,100.00
2022-10-16T23:21:24.680Z,100.00
2022-10-16T23:23:53.812Z,100.00
2022-10-16T23:26:24.957Z,100.00
2022-10-16T23:28:52.968Z,100.00
2022-10-16T23:31:20.624Z,100.00
2022-10-16T23:33:48.190Z,100.00
2022-10-16T23:36:18.555Z,100.00
2022-10-16T23:38:48.896Z,100.00
2022-10-16T23:41:18.396Z,100.00
2022-10-16T23:43:46.132Z,100.00
2022-10-16T23:46:15.152Z,100.00
2022-10-16T23:48:42.828Z,100.00
2022-10-16T23:51:11.054Z,100.00
2022-10-16T23:53:41.046Z,100.00
2022-10-16T23:56:08.935Z,100.00
2022-10-16T23:58:36.758Z,100.00
